createdAt,value
2018-04-10T00:00:34.302Z,53.67
2018-04-10T00:03:02.171Z,55.50
2018-04-10T00:05:30.060Z,55.44
2018-04-10T00:07:57.654Z,55.30
2018-04-10T00:10:26.947Z,54.42
2018-04-10T00:12:54.579Z,55.81
2018-04-10T00:15:22.648Z,57.13
2018-04-10T00:17:50.614Z,57.26
2018-04-10T00:20:18.923Z,56.24
2018-04-10T00:22:46.550Z,55.29
2018-04-10T00:25:14.162Z,54.74
2018-04-10T00:27:41.714Z,54.24
2018-04-10T00:30:09.978Z,54.00
2018-04-10T00:32:37.935Z,53.65
2018-04-10T00:35:05.812Z,53.45
2018-04-10T00:37:33.720Z,53.28
2018-04-10T00:40:02.152Z,53.37
2018-04-10T00:42:30.266Z,53.60
2018-04-10T00:44:57.821Z,53.95
2018-04-10T00:47:25.662Z,54.36
2018-04-10T00:49:53.230Z,54.75
2018-04-10T00:52:21.134Z,54.57
2018-04-10T00:54:48.758Z,53.87
2018-04-10T00:57:16.915Z,53.45
2018-04-10T00:59:44.466Z,53.45
2018-04-10T01:02:12.063Z,53.45
2018-04-10T01:04:39.946Z,52.59
2018-04-10T01:07:08.279Z,56.04
2018-04-10T01:09:35.844Z,59.03
2018-04-10T01:12:03.434Z,59.14
2018-04-10T01:14:31.047Z,57.40
2018-04-10T01:16:58.606Z,56.34
2018-04-10T01:19:26.621Z,55.89
2018-04-10T01:21:54.174Z,55.11
2018-04-10T01:24:21.733Z,54.63
2018-04-10T01:26:49.289Z,55.60
2018-04-10T01:29:16.975Z,56.57
2018-04-10T01:31:45.061Z,59.06
2018-04-10T01:34:12.618Z,61.20
2018-04-10T01:36:40.218Z,59.90
2018-04-10T01:39:08.736Z,58.07
2018-04-10T01:41:36.689Z,56.62
2018-04-10T01:44:04.489Z,55.89
2018-04-10T01:46:32.655Z,55.36
2018-04-10T01:49:00.878Z,55.78
2018-04-10T01:51:28.431Z,55.52
2018-04-10T01:53:56.044Z,55.31
2018-04-10T01:56:24.043Z,54.89
2018-04-10T01:58:51.589Z,54.34
2018-04-10T02:01:19.142Z,54.65
2018-04-10T02:03:47.174Z,55.29
2018-04-10T02:06:14.722Z,58.02
2018-04-10T02:08:42.274Z,57.89
2018-04-10T02:11:09.877Z,57.19
2018-04-10T02:13:37.426Z,57.06
2018-04-10T02:16:05.034Z,55.84
2018-04-10T02:18:32.886Z,56.46
2018-04-10T02:21:00.502Z,57.56
2018-04-10T02:23:28.911Z,57.39
2018-04-10T02:25:56.462Z,55.96
2018-04-10T02:28:24.058Z,57.02
2018-04-10T02:30:52.115Z,56.63
2018-04-10T02:33:20.014Z,55.76
2018-04-10T02:35:47.774Z,56.49
2018-04-10T02:38:15.326Z,59.95
2018-04-10T02:40:42.938Z,61.27
2018-04-10T02:43:10.490Z,61.64
2018-04-10T02:45:38.085Z,64.17
2018-04-10T02:48:06.219Z,64.35
2018-04-10T02:50:34.357Z,64.05
2018-04-10T02:53:02.587Z,63.08
2018-04-10T02:55:30.570Z,62.78
2018-04-10T02:57:58.171Z,62.62
2018-04-10T03:00:25.770Z,62.87
2018-04-10T03:02:54.513Z,63.89
2018-04-10T03:05:22.122Z,65.22
2018-04-10T03:07:49.953Z,64.99
2018-04-10T03:10:17.506Z,63.71
2018-04-10T03:12:45.630Z,61.78
2018-04-10T03:15:13.258Z,63.17
2018-04-10T03:17:40.822Z,64.53
2018-04-10T03:20:08.618Z,65.00
2018-04-10T03:22:36.170Z,65.20
2018-04-10T03:25:03.814Z,64.94
2018-04-10T03:27:31.378Z,64.80
2018-04-10T03:29:59.365Z,64.52
2018-04-10T03:32:27.329Z,65.55
2018-04-10T03:34:54.918Z,66.35
2018-04-10T03:37:22.471Z,66.37
2018-04-10T03:39:50.136Z,66.37
2018-04-10T03:42:17.698Z,66.14
2018-04-10T03:44:45.290Z,65.16
2018-04-10T03:47:13.422Z,64.62
2018-04-10T03:49:41.014Z,63.03
2018-04-10T03:52:08.606Z,61.28
2018-04-10T03:54:36.159Z,60.37
2018-04-10T03:57:04.161Z,60.20
2018-04-10T03:59:32.201Z,61.26
2018-04-10T04:02:00.317Z,61.08
2018-04-10T04:04:28.214Z,61.91
2018-04-10T04:06:56.148Z,63.22
2018-04-10T04:09:23.700Z,64.35
2018-04-10T04:11:51.475Z,64.44
2018-04-10T04:14:19.027Z,64.42
2018-04-10T04:16:58.178Z,63.52
2018-04-10T04:19:37.406Z,63.74
2018-04-10T04:22:16.607Z,63.18
2018-04-10T04:24:44.711Z,61.77
2018-04-10T04:27:12.645Z,60.44
2018-04-10T04:29:40.193Z,58.93
2018-04-10T04:32:08.022Z,58.47
2018-04-10T04:34:35.573Z,56.90
2018-04-10T04:37:03.835Z,55.29
2018-04-10T04:39:31.442Z,53.93
2018-04-10T04:41:59.539Z,52.87
2018-04-10T04:44:27.606Z,52.51
2018-04-10T04:46:55.158Z,54.54
2018-04-10T04:49:22.758Z,56.82
2018-04-10T04:51:50.315Z,58.65
2018-04-10T04:54:17.910Z,59.04
2018-04-10T04:56:45.471Z,59.96
2018-04-10T04:59:13.079Z,57.54
2018-04-10T05:01:41.038Z,58.11
2018-04-10T05:04:08.678Z,58.99
2018-04-10T05:06:37.706Z,57.61
2018-04-10T05:09:06.278Z,56.84
2018-04-10T05:11:34.674Z,56.38
2018-04-10T05:14:04.901Z,56.16
2018-04-10T05:16:33.228Z,55.84
2018-04-10T05:19:01.318Z,56.50
2018-04-10T05:21:29.420Z,55.63
2018-04-10T05:23:57.489Z,53.71
2018-04-10T05:26:25.309Z,53.43
2018-04-10T05:28:53.359Z,52.87
2018-04-10T05:31:21.200Z,52.25
2018-04-10T05:33:49.151Z,50.23
2018-04-10T05:36:16.720Z,47.53
2018-04-10T05:38:44.278Z,46.83
2018-04-10T05:41:11.906Z,46.86
2018-04-10T05:43:39.464Z,46.09
2018-04-10T05:46:07.074Z,46.09
2018-04-10T05:48:34.834Z,45.01
2018-04-10T05:51:02.753Z,45.24
2018-04-10T05:53:30.958Z,44.76
2018-04-10T05:55:58.526Z,44.36
2018-04-10T05:58:26.922Z,43.33
2018-04-10T06:00:54.804Z,42.36
2018-04-10T06:03:22.634Z,40.92
2018-04-10T06:05:50.407Z,40.63
2018-04-10T06:08:18.027Z,40.77
2018-04-10T06:10:49.963Z,39.74
2018-04-10T06:13:23.479Z,38.19
2018-04-10T06:15:56.856Z,37.77
2018-04-10T06:18:27.163Z,37.91
2018-04-10T06:20:55.847Z,38.09
2018-04-10T06:23:23.523Z,38.53
2018-04-10T06:25:51.596Z,37.34
2018-04-10T06:28:19.147Z,35.99
2018-04-10T06:30:46.760Z,36.54
2018-04-10T06:33:14.567Z,37.08
2018-04-10T06:35:42.127Z,37.86
2018-04-10T06:38:09.875Z,37.83
2018-04-10T06:40:37.796Z,36.70
2018-04-10T06:43:07.782Z,37.13
2018-04-10T06:45:35.493Z,36.37
2018-04-10T06:48:04.217Z,37.29
2018-04-10T06:50:31.772Z,38.70
2018-04-10T06:53:00.184Z,39.73
2018-04-10T06:55:28.404Z,41.84
2018-04-10T06:57:55.978Z,42.73
2018-04-10T07:00:23.539Z,42.71
2018-04-10T07:02:51.390Z,43.05
2018-04-10T07:05:19.895Z,43.64
2018-04-10T07:07:48.805Z,44.08
2018-04-10T07:10:17.170Z,44.48
2018-04-10T07:12:44.737Z,44.01
2018-04-10T07:15:12.350Z,44.52
2018-04-10T07:17:39.964Z,44.45
2018-04-10T07:20:07.570Z,43.55
2018-04-10T07:22:36.531Z,43.39
2018-04-10T07:25:04.092Z,43.32
2018-04-10T07:27:31.799Z,43.06
2018-04-10T07:29:59.353Z,42.65
2018-04-10T07:32:26.999Z,43.09
2018-04-10T07:34:54.570Z,42.66
2018-04-10T07:37:22.130Z,42.37
2018-04-10T07:39:50.246Z,41.63
2018-04-10T07:42:17.880Z,42.10
2018-04-10T07:44:45.452Z,41.95
2018-04-10T07:47:13.070Z,42.44
2018-04-10T07:49:40.744Z,42.66
2018-04-10T07:52:08.328Z,42.42
2018-04-10T07:54:35.951Z,41.45
2018-04-10T07:57:04.009Z,41.60
2018-04-10T07:59:32.275Z,42.16
2018-04-10T08:02:00.176Z,42.43
2018-04-10T08:04:28.160Z,42.06
2018-04-10T08:06:55.783Z,42.31
2018-04-10T08:09:23.358Z,41.54
2018-04-10T08:11:50.940Z,41.86
2018-04-10T08:14:18.691Z,42.02
2018-04-10T08:16:46.246Z,41.81
2018-04-10T08:19:13.866Z,42.18
2018-04-10T08:21:41.976Z,41.98
2018-04-10T08:24:09.532Z,41.17
2018-04-10T08:26:37.122Z,41.29
2018-04-10T08:29:05.014Z,41.80
2018-04-10T08:31:32.578Z,41.36
2018-04-10T08:34:00.207Z,40.67
2018-04-10T08:36:27.778Z,40.42
2018-04-10T08:38:55.349Z,39.83
2018-04-10T08:41:22.947Z,40.02
2018-04-10T08:43:51.590Z,40.21
2018-04-10T08:46:19.298Z,40.33
2018-04-10T08:48:46.852Z,40.24
2018-04-10T08:51:14.524Z,39.82
2018-04-10T08:53:43.398Z,39.85
2018-04-10T08:56:11.001Z,40.04
2018-04-10T08:58:39.115Z,40.34
2018-04-10T09:01:06.814Z,39.84
2018-04-10T09:03:34.426Z,39.80
2018-04-10T09:06:02.479Z,39.77
2018-04-10T09:08:30.122Z,39.72
2018-04-10T09:10:57.686Z,39.97
2018-04-10T09:13:25.324Z,40.04
2018-04-10T09:15:53.893Z,40.09
2018-04-10T09:18:22.034Z,40.01
2018-04-10T09:20:49.787Z,40.01
2018-04-10T09:23:17.402Z,40.15
2018-04-10T09:25:44.996Z,39.75
2018-04-10T09:28:12.554Z,39.79
2018-04-10T09:30:40.174Z,40.06
2018-04-10T09:33:08.229Z,40.22
2018-04-10T09:35:36.169Z,40.20
2018-04-10T09:38:03.877Z,40.36
2018-04-10T09:40:32.325Z,40.50
2018-04-10T09:43:00.023Z,40.52
2018-04-10T09:45:34.377Z,40.47
2018-04-10T09:48:01.944Z,40.51
2018-04-10T09:50:29.852Z,40.05
2018-04-10T09:52:58.455Z,40.19
2018-04-10T09:55:26.023Z,40.47
2018-04-10T09:57:54.008Z,40.28
2018-04-10T10:00:27.319Z,40.19
2018-04-10T10:02:54.915Z,40.25
2018-04-10T10:05:22.558Z,40.12
2018-04-10T10:07:50.247Z,40.28
2018-04-10T10:10:17.840Z,40.25
2018-04-10T10:12:45.516Z,40.35
2018-04-10T10:15:13.088Z,40.15
2018-04-10T10:17:40.655Z,39.94
2018-04-10T10:20:08.284Z,40.09
2018-04-10T10:22:36.131Z,40.30
2018-04-10T10:25:04.191Z,40.47
2018-04-10T10:27:31.863Z,40.73
2018-04-10T10:29:59.748Z,40.89
2018-04-10T10:32:27.294Z,40.90
2018-04-10T10:34:55.037Z,40.96
2018-04-10T10:37:22.808Z,40.76
2018-04-10T10:39:51.175Z,40.68
2018-04-10T10:42:18.946Z,40.33
2018-04-10T10:44:46.546Z,40.43
2018-04-10T10:47:14.120Z,40.60
2018-04-10T10:49:42.110Z,40.69
2018-04-10T10:52:10.192Z,40.73
2018-04-10T10:54:37.806Z,40.83
2018-04-10T10:57:06.025Z,40.95
2018-04-10T10:59:34.227Z,41.01
2018-04-10T11:02:01.794Z,41.07
2018-04-10T11:04:29.373Z,40.99
2018-04-10T11:06:57.226Z,41.01
2018-04-10T11:09:25.081Z,40.99
2018-04-10T11:11:52.757Z,40.91
2018-04-10T11:14:20.350Z,40.83
2018-04-10T11:16:48.506Z,40.89
2018-04-10T11:19:16.095Z,40.60
2018-04-10T11:21:44.374Z,39.96
2018-04-10T11:24:12.164Z,39.94
2018-04-10T11:26:39.955Z,39.86
2018-04-10T11:29:07.529Z,39.87
2018-04-10T11:31:35.100Z,40.01
2018-04-10T11:34:02.696Z,40.33
2018-04-10T11:36:30.256Z,40.26
2018-04-10T11:38:57.875Z,40.11
2018-04-10T11:41:25.483Z,40.16
2018-04-10T11:43:53.535Z,40.30
2018-04-10T11:46:21.203Z,40.40
2018-04-10T11:48:48.771Z,40.32
2018-04-10T11:51:16.647Z,40.40
2018-04-10T11:53:44.253Z,40.46
2018-04-10T11:56:11.817Z,40.41
2018-04-10T11:58:39.810Z,40.34
2018-04-10T12:01:07.420Z,39.98
2018-04-10T12:03:35.458Z,39.85
2018-04-10T12:06:03.401Z,39.80
2018-04-10T12:08:30.980Z,39.66
2018-04-10T12:10:58.806Z,39.28
2018-04-10T12:13:26.826Z,39.23
2018-04-10T12:15:54.374Z,39.05
2018-04-10T12:18:22.360Z,38.96
2018-04-10T12:20:49.968Z,38.88
2018-04-10T12:23:17.911Z,38.77
2018-04-10T12:25:45.467Z,38.73
2018-04-10T12:28:13.342Z,38.51
2018-04-10T12:30:41.019Z,38.56
2018-04-10T12:33:09.243Z,38.70
2018-04-10T12:35:37.000Z,38.74
2018-04-10T12:38:05.033Z,38.59
2018-04-10T12:40:32.983Z,38.65
2018-04-10T12:43:00.547Z,38.68
2018-04-10T12:45:28.108Z,38.73
2018-04-10T12:47:55.812Z,38.62
2018-04-10T12:50:23.765Z,38.74
2018-04-10T12:52:51.339Z,38.71
2018-04-10T12:55:18.955Z,38.71
2018-04-10T12:57:46.562Z,38.82
2018-04-10T13:00:14.122Z,38.62
2018-04-10T13:02:41.916Z,38.53
2018-04-10T13:05:09.462Z,38.45
2018-04-10T13:07:37.510Z,38.44
2018-04-10T13:10:05.231Z,38.53
2018-04-10T13:12:33.102Z,38.60
2018-04-10T13:15:00.664Z,38.69
2018-04-10T13:17:28.716Z,38.88
2018-04-10T13:19:56.275Z,38.78
2018-04-10T13:22:33.117Z,38.78
2018-04-10T13:25:01.059Z,38.87
2018-04-10T13:27:28.606Z,38.90
2018-04-10T13:29:56.202Z,38.82
2018-04-10T13:32:24.570Z,38.82
2018-04-10T13:34:52.170Z,38.92
2018-04-10T13:37:20.690Z,38.97
2018-04-10T13:39:48.275Z,39.03
2018-04-10T13:42:15.867Z,39.35
2018-04-10T13:44:43.419Z,39.07
2018-04-10T13:47:11.011Z,39.20
2018-04-10T13:49:38.624Z,39.49
2018-04-10T13:52:06.175Z,39.60
2018-04-10T13:54:33.729Z,39.72
2018-04-10T13:57:01.318Z,39.95
2018-04-10T13:59:29.164Z,39.98
2018-04-10T14:01:57.027Z,40.02
2018-04-10T14:04:24.645Z,40.08
2018-04-10T14:06:52.585Z,40.20
2018-04-10T14:09:20.185Z,40.35
2018-04-10T14:11:47.786Z,40.54
2018-04-10T14:14:16.029Z,40.75
2018-04-10T14:16:43.720Z,40.81
2018-04-10T14:19:11.713Z,40.92
2018-04-10T14:21:40.046Z,41.00
2018-04-10T14:24:07.631Z,41.04
2018-04-10T14:26:35.895Z,41.12
2018-04-10T14:29:03.502Z,41.29
2018-04-10T14:31:31.083Z,41.38
2018-04-10T14:33:58.686Z,41.42
2018-04-10T14:36:26.329Z,41.45
2018-04-10T14:38:53.969Z,41.47
2018-04-10T14:41:21.530Z,41.54
2018-04-10T14:43:49.123Z,41.60
2018-04-10T14:46:16.847Z,41.70
2018-04-10T14:48:44.406Z,41.82
2018-04-10T14:51:12.617Z,41.89
2018-04-10T14:53:40.190Z,42.03
2018-04-10T14:56:08.546Z,42.21
2018-04-10T14:58:36.154Z,42.35
2018-04-10T15:01:03.782Z,42.45
2018-04-10T15:03:31.360Z,42.52
2018-04-10T15:05:58.909Z,42.63
2018-04-10T15:08:26.884Z,42.80
2018-04-10T15:10:54.434Z,42.92
2018-04-10T15:13:22.034Z,42.98
2018-04-10T15:15:49.581Z,43.07
2018-04-10T15:18:17.337Z,43.17
2018-04-10T15:20:45.468Z,43.25
2018-04-10T15:23:13.354Z,43.29
2018-04-10T15:25:40.954Z,43.42
2018-04-10T15:28:08.583Z,43.52
2018-04-10T15:30:36.514Z,43.66
2018-04-10T15:33:04.287Z,43.72
2018-04-10T15:35:31.879Z,43.86
2018-04-10T15:38:00.173Z,43.98
2018-04-10T15:40:28.194Z,44.14
2018-04-10T15:42:56.634Z,44.35
2018-04-10T15:45:24.666Z,44.48
2018-04-10T15:47:52.275Z,44.55
2018-04-10T15:50:19.841Z,44.62
2018-04-10T15:52:47.697Z,44.69
2018-04-10T15:55:16.890Z,44.84
2018-04-10T15:57:45.375Z,45.05
2018-04-10T16:00:13.571Z,45.22
2018-04-10T16:02:41.153Z,45.33
2018-04-10T16:05:08.855Z,45.45
2018-04-10T16:07:38.063Z,45.51
2018-04-10T16:10:05.654Z,45.56
2018-04-10T16:12:34.157Z,45.71
2018-04-10T16:15:02.014Z,45.78
2018-04-10T16:17:30.054Z,45.88
2018-04-10T16:19:58.219Z,45.85
2018-04-10T16:22:26.230Z,45.91
2018-04-10T16:24:54.017Z,46.00
2018-04-10T16:27:22.426Z,45.97
2018-04-10T16:29:49.981Z,46.21
2018-04-10T16:32:17.586Z,46.31
2018-04-10T16:34:45.206Z,46.50
2018-04-10T16:37:12.909Z,46.89
2018-04-10T16:39:42.410Z,46.69
2018-04-10T16:42:11.093Z,48.33
2018-04-10T16:44:40.278Z,48.71
2018-04-10T16:47:07.847Z,48.40
2018-04-10T16:49:36.565Z,48.30
2018-04-10T16:52:04.208Z,48.39
2018-04-10T16:54:31.959Z,48.62
2018-04-10T16:57:00.236Z,49.20
2018-04-10T16:59:27.820Z,49.29
2018-04-10T17:01:55.487Z,49.32
2018-04-10T17:04:23.834Z,49.35
2018-04-10T17:06:52.522Z,49.60
2018-04-10T17:09:20.115Z,49.85
2018-04-10T17:11:47.670Z,50.50
2018-04-10T17:14:15.871Z,51.19
2018-04-10T17:16:43.937Z,51.45
2018-04-10T17:19:13.496Z,51.41
2018-04-10T17:21:41.868Z,51.33
2018-04-10T17:24:09.499Z,51.42
2018-04-10T17:26:38.009Z,53.00
2018-04-10T17:29:07.354Z,53.58
2018-04-10T17:31:35.482Z,53.92
2018-04-10T17:34:03.873Z,54.72
2018-04-10T17:36:31.989Z,54.27
2018-04-10T17:39:00.058Z,54.46
2018-04-10T17:41:28.278Z,55.42
2018-04-10T17:43:56.237Z,56.09
2018-04-10T17:46:24.089Z,55.30
2018-04-10T17:48:51.992Z,55.20
2018-04-10T17:51:20.112Z,55.25
2018-04-10T17:53:48.626Z,54.78
2018-04-10T17:56:18.480Z,54.28
2018-04-10T17:58:46.731Z,53.63
2018-04-10T18:01:14.690Z,53.64
2018-04-10T18:03:42.688Z,54.42
2018-04-10T18:06:10.387Z,54.64
2018-04-10T18:08:37.971Z,55.28
2018-04-10T18:11:05.814Z,55.61
2018-04-10T18:13:33.731Z,55.73
2018-04-10T18:16:02.808Z,55.79
2018-04-10T18:18:30.810Z,55.38
2018-04-10T18:20:58.950Z,54.91
2018-04-10T18:23:26.891Z,54.48
2018-04-10T18:25:54.490Z,54.46
2018-04-10T18:28:22.551Z,54.81
2018-04-10T18:30:50.122Z,55.20
2018-04-10T18:33:17.726Z,55.24
2018-04-10T18:35:47.992Z,55.10
2018-04-10T18:38:15.861Z,55.23
2018-04-10T18:40:43.482Z,54.69
2018-04-10T18:43:11.042Z,54.67
2018-04-10T18:45:39.326Z,54.75
2018-04-10T18:48:07.826Z,54.33
2018-04-10T18:50:35.435Z,53.99
2018-04-10T18:53:03.049Z,54.51
2018-04-10T18:55:30.654Z,53.95
2018-04-10T18:57:58.258Z,54.16
2018-04-10T19:00:26.959Z,54.05
2018-04-10T19:02:54.672Z,54.47
2018-04-10T19:05:22.762Z,54.72
2018-04-10T19:07:51.178Z,54.87
2018-04-10T19:10:18.788Z,56.34
2018-04-10T19:12:47.234Z,57.47
2018-04-10T19:15:15.627Z,56.94
2018-04-10T19:17:43.208Z,56.61
2018-04-10T19:20:10.978Z,56.45
2018-04-10T19:22:39.393Z,57.17
2018-04-10T19:25:07.013Z,56.62
2018-04-10T19:27:35.330Z,57.27
2018-04-10T19:30:04.326Z,58.03
2018-04-10T19:32:31.933Z,57.49
2018-04-10T19:35:00.376Z,58.37
2018-04-10T19:37:31.020Z,59.07
2018-04-10T19:39:59.623Z,59.35
2018-04-10T19:42:27.366Z,57.88
2018-04-10T19:44:55.243Z,57.82
2018-04-10T19:47:24.506Z,58.61
2018-04-10T19:49:52.062Z,58.16
2018-04-10T19:52:20.340Z,58.16
2018-04-10T19:54:48.290Z,57.51
2018-04-10T19:57:16.206Z,57.46
2018-04-10T19:59:44.422Z,57.69
2018-04-10T20:02:12.377Z,57.88
2018-04-10T20:04:39.991Z,57.34
2018-04-10T20:07:08.492Z,57.26
2018-04-10T20:09:36.250Z,58.47
2018-04-10T20:12:04.882Z,58.57
2018-04-10T20:14:32.673Z,59.44
2018-04-10T20:17:01.055Z,58.54
2018-04-10T20:19:28.701Z,58.41
2018-04-10T20:21:56.260Z,58.20
2018-04-10T20:24:23.811Z,58.14
2018-04-10T20:26:51.427Z,58.98
2018-04-10T20:29:19.040Z,59.57
2018-04-10T20:31:47.128Z,60.46
2018-04-10T20:34:14.738Z,60.64
2018-04-10T20:36:42.327Z,60.53
2018-04-10T20:39:09.921Z,60.25
2018-04-10T20:41:37.510Z,60.72
2018-04-10T20:44:05.126Z,60.90
2018-04-10T20:46:32.758Z,60.77
2018-04-10T20:49:02.153Z,60.51
2018-04-10T20:51:29.806Z,60.21
2018-04-10T20:53:57.361Z,60.60
2018-04-10T20:56:24.998Z,61.01
2018-04-10T20:58:52.553Z,60.82
2018-04-10T21:01:20.494Z,59.70
2018-04-10T21:03:48.098Z,58.85
2018-04-10T21:06:15.891Z,58.20
2018-04-10T21:08:43.494Z,57.50
2018-04-10T21:11:11.723Z,57.28
2018-04-10T21:13:39.887Z,57.47
2018-04-10T21:16:07.442Z,57.16
2018-04-10T21:18:35.068Z,56.00
2018-04-10T21:21:02.938Z,56.63
2018-04-10T21:23:30.502Z,56.85
2018-04-10T21:25:58.078Z,56.98
2018-04-10T21:28:26.203Z,56.47
2018-04-10T21:30:53.815Z,57.14
2018-04-10T21:33:21.438Z,57.64
2018-04-10T21:35:49.068Z,57.27
2018-04-10T21:38:16.996Z,57.34
2018-04-10T21:40:45.455Z,56.96
2018-04-10T21:43:18.521Z,56.37
2018-04-10T21:45:46.075Z,56.73
2018-04-10T21:48:13.689Z,57.27
2018-04-10T21:50:41.246Z,57.04
2018-04-10T21:53:08.851Z,57.14
2018-04-10T21:55:36.441Z,56.64
2018-04-10T21:58:04.092Z,56.67
2018-04-10T22:00:32.189Z,56.51
2018-04-10T22:02:59.802Z,56.01
2018-04-10T22:05:27.602Z,55.88
2018-04-10T22:07:55.556Z,56.18
2018-04-10T22:10:23.360Z,55.76
2018-04-10T22:12:51.482Z,55.06
2018-04-10T22:15:19.251Z,54.80
2018-04-10T22:17:46.814Z,54.60
2018-04-10T22:20:14.421Z,54.29
2018-04-10T22:22:42.430Z,54.22
2018-04-10T22:25:10.350Z,54.13
2018-04-10T22:27:38.773Z,54.16
2018-04-10T22:30:06.327Z,54.15
2018-04-10T22:32:33.868Z,54.40
2018-04-10T22:35:01.476Z,54.05
2018-04-10T22:37:29.088Z,54.90
2018-04-10T22:39:56.732Z,57.25
2018-04-10T22:42:24.317Z,58.79
2018-04-10T22:44:52.243Z,59.78
2018-04-10T22:47:19.848Z,60.21
2018-04-10T22:49:47.945Z,60.25
2018-04-10T22:52:15.503Z,60.95
2018-04-10T22:54:43.178Z,61.47
2018-04-10T22:57:10.750Z,61.18
2018-04-10T22:59:38.318Z,60.26
2018-04-10T23:02:06.179Z,59.53
2018-04-10T23:04:33.791Z,59.28
2018-04-10T23:07:01.395Z,59.22
2018-04-10T23:09:28.995Z,59.65
2018-04-10T23:11:56.877Z,59.78
2018-04-10T23:14:24.710Z,59.26
2018-04-10T23:16:52.315Z,58.48
2018-04-10T23:19:20.484Z,57.66
2018-04-10T23:21:48.096Z,57.69
2018-04-10T23:24:15.675Z,58.70
2018-04-10T23:26:43.468Z,59.77
2018-04-10T23:29:11.135Z,61.08
2018-04-10T23:31:38.717Z,61.92
2018-04-10T23:34:06.294Z,62.03
2018-04-10T23:36:33.933Z,62.01
2018-04-10T23:39:01.491Z,62.51
2018-04-10T23:41:29.127Z,62.51
2018-04-10T23:43:57.509Z,61.72
2018-04-10T23:46:25.327Z,61.54
2018-04-10T23:48:52.911Z,61.52
2018-04-10T23:51:20.502Z,60.74
2018-04-10T23:53:48.276Z,60.69
2018-04-10T23:56:16.485Z,60.18
2018-04-10T23:58:44.094Z,59.38
